createdAt,value
2018-05-07T00:00:55.739Z,60.60
2018-05-07T00:03:26.496Z,59.61
2018-05-07T00:05:57.381Z,60.17
2018-05-07T00:08:28.263Z,61.05
2018-05-07T00:10:59.063Z,61.34
2018-05-07T00:13:29.846Z,62.16
2018-05-07T00:16:00.660Z,60.79
2018-05-07T00:18:31.452Z,61.13
2018-05-07T00:21:02.232Z,61.59
2018-05-07T00:23:33.003Z,61.42
2018-05-07T00:26:03.815Z,60.79
2018-05-07T00:28:34.584Z,61.86
2018-05-07T00:31:05.367Z,61.96
2018-05-07T00:33:36.152Z,61.39
2018-05-07T00:36:06.933Z,61.25
2018-05-07T00:38:37.716Z,61.76
2018-05-07T00:41:08.516Z,61.33
2018-05-07T00:43:39.284Z,60.97
2018-05-07T00:46:10.082Z,60.73
2018-05-07T00:48:40.835Z,61.45
2018-05-07T00:51:18.668Z,61.91
2018-05-07T00:53:49.448Z,62.39
2018-05-07T00:56:20.263Z,61.85
2018-05-07T00:58:51.012Z,61.60
2018-05-07T01:01:21.812Z,62.23
2018-05-07T01:03:52.576Z,62.38
2018-05-07T01:06:23.349Z,62.46
2018-05-07T01:08:54.109Z,62.00
2018-05-07T01:11:24.891Z,62.78
2018-05-07T01:13:55.670Z,62.73
2018-05-07T01:16:26.435Z,62.37
2018-05-07T01:18:57.208Z,62.74
2018-05-07T01:21:35.667Z,62.90
2018-05-07T01:24:06.447Z,62.31
2018-05-07T01:26:37.241Z,62.48
2018-05-07T01:29:07.999Z,63.06
2018-05-07T01:31:38.793Z,63.41
2018-05-07T01:34:09.549Z,63.59
2018-05-07T01:36:40.329Z,63.90
2018-05-07T01:39:11.105Z,63.99
2018-05-07T01:41:41.868Z,64.41
2018-05-07T01:44:12.656Z,63.68
2018-05-07T01:46:43.500Z,63.66
2018-05-07T01:49:14.266Z,64.16
2018-05-07T01:51:45.048Z,63.87
2018-05-07T01:54:15.817Z,64.05
2018-05-07T01:56:46.601Z,64.05
2018-05-07T01:59:17.411Z,64.18
2018-05-07T02:01:48.183Z,64.42
2018-05-07T02:04:18.975Z,64.92
2018-05-07T02:06:49.779Z,64.88
2018-05-07T02:09:20.567Z,65.05
2018-05-07T02:11:53.036Z,65.55
2018-05-07T02:14:23.823Z,64.82
2018-05-07T02:16:54.595Z,64.81
2018-05-07T02:19:25.369Z,65.23
2018-05-07T02:21:56.143Z,64.94
2018-05-07T02:24:26.916Z,64.95
2018-05-07T02:26:58.368Z,65.11
2018-05-07T02:29:29.161Z,65.04
2018-05-07T02:31:59.936Z,65.47
2018-05-07T02:34:30.708Z,65.18
2018-05-07T02:37:01.496Z,65.33
2018-05-07T02:39:32.268Z,65.62
2018-05-07T02:42:03.090Z,66.13
2018-05-07T02:44:33.880Z,66.39
2018-05-07T02:47:04.675Z,66.36
2018-05-07T02:49:35.454Z,66.44
2018-05-07T02:52:06.743Z,66.26
2018-05-07T02:54:37.526Z,66.23
2018-05-07T02:57:08.364Z,66.32
2018-05-07T02:59:39.207Z,66.62
2018-05-07T03:02:10.015Z,66.87
2018-05-07T03:04:40.814Z,67.04
2018-05-07T03:07:11.668Z,66.97
2018-05-07T03:09:42.448Z,67.46
2018-05-07T03:12:13.312Z,67.80
2018-05-07T03:14:44.047Z,67.97
2018-05-07T03:17:14.848Z,68.13
2018-05-07T03:19:45.616Z,67.70
2018-05-07T03:22:16.386Z,67.91
2018-05-07T03:24:47.217Z,68.25
2018-05-07T03:27:18.031Z,68.36
2018-05-07T03:29:48.799Z,68.31
2018-05-07T03:32:19.582Z,68.21
2018-05-07T03:34:50.368Z,68.47
2018-05-07T03:37:21.143Z,68.00
2018-05-07T03:39:51.920Z,68.71
2018-05-07T03:42:22.692Z,69.19
2018-05-07T03:44:53.472Z,69.35
2018-05-07T03:47:24.268Z,69.53
2018-05-07T03:49:55.031Z,69.41
2018-05-07T03:52:25.801Z,68.93
2018-05-07T03:54:56.556Z,69.19
2018-05-07T03:57:27.327Z,69.04
2018-05-07T03:59:58.104Z,69.04
2018-05-07T04:02:28.881Z,68.71
2018-05-07T04:04:59.632Z,68.56
2018-05-07T04:07:30.429Z,68.12
2018-05-07T04:10:01.200Z,68.53
2018-05-07T04:12:32.048Z,68.54
2018-05-07T04:15:02.833Z,68.18
2018-05-07T04:17:45.976Z,68.31
2018-05-07T04:20:29.124Z,67.84
2018-05-07T04:23:12.353Z,67.69
2018-05-07T04:25:43.139Z,67.52
2018-05-07T04:28:13.920Z,67.83
2018-05-07T04:30:44.667Z,66.93
2018-05-07T04:33:15.443Z,66.86
2018-05-07T04:35:46.200Z,66.39
2018-05-07T04:38:16.976Z,66.32
2018-05-07T04:40:47.725Z,65.88
2018-05-07T04:43:18.557Z,65.41
2018-05-07T04:45:49.287Z,65.48
2018-05-07T04:48:20.071Z,65.60
2018-05-07T04:50:50.828Z,65.44
2018-05-07T04:53:21.596Z,64.58
2018-05-07T04:55:52.369Z,62.30
2018-05-07T04:58:23.151Z,57.77
2018-05-07T05:00:53.923Z,54.90
2018-05-07T05:03:24.720Z,52.82
2018-05-07T05:05:55.499Z,50.58
2018-05-07T05:08:26.324Z,51.10
2018-05-07T05:10:57.071Z,49.59
2018-05-07T05:13:27.828Z,48.37
2018-05-07T05:15:58.600Z,47.50
2018-05-07T05:18:29.387Z,47.35
2018-05-07T05:21:00.157Z,46.53
2018-05-07T05:23:30.958Z,46.85
2018-05-07T05:26:01.718Z,45.28
2018-05-07T05:28:32.509Z,44.97
2018-05-07T05:31:03.296Z,44.90
2018-05-07T05:33:34.077Z,43.94
2018-05-07T05:36:04.835Z,42.24
2018-05-07T05:38:35.636Z,39.96
2018-05-07T05:41:06.404Z,40.73
2018-05-07T05:43:37.272Z,40.67
2018-05-07T05:46:07.951Z,40.38
2018-05-07T05:48:38.743Z,40.70
2018-05-07T05:51:09.515Z,39.64
2018-05-07T05:53:40.295Z,39.74
2018-05-07T05:56:11.164Z,39.35
2018-05-07T05:58:41.923Z,37.70
2018-05-07T06:01:12.709Z,36.71
2018-05-07T06:03:43.549Z,36.31
2018-05-07T06:06:14.276Z,36.46
2018-05-07T06:08:45.101Z,38.63
2018-05-07T06:11:15.886Z,38.62
2018-05-07T06:13:46.683Z,36.87
2018-05-07T06:16:17.451Z,36.90
2018-05-07T06:18:48.255Z,36.37
2018-05-07T06:21:19.007Z,34.49
2018-05-07T06:23:49.816Z,33.82
2018-05-07T06:26:20.579Z,34.59
2018-05-07T06:28:51.379Z,34.91
2018-05-07T06:31:22.132Z,34.54
2018-05-07T06:33:52.925Z,33.36
2018-05-07T06:36:23.722Z,33.19
2018-05-07T06:38:54.516Z,33.34
2018-05-07T06:41:25.280Z,31.97
2018-05-07T06:43:56.049Z,31.23
2018-05-07T06:46:26.824Z,30.02
2018-05-07T06:48:57.631Z,32.00
2018-05-07T06:51:28.498Z,31.03
2018-05-07T06:53:59.223Z,30.69
2018-05-07T06:56:30.009Z,31.79
2018-05-07T06:59:00.807Z,31.01
2018-05-07T07:01:31.590Z,30.73
2018-05-07T07:04:02.388Z,29.65
2018-05-07T07:06:33.155Z,30.97
2018-05-07T07:09:05.025Z,33.22
2018-05-07T07:11:35.811Z,32.32
2018-05-07T07:14:06.624Z,31.43
2018-05-07T07:16:37.411Z,31.47
2018-05-07T07:19:08.199Z,30.94
2018-05-07T07:21:38.993Z,30.61
2018-05-07T07:24:09.793Z,30.61
2018-05-07T07:26:40.564Z,30.07
2018-05-07T07:29:11.357Z,30.50
2018-05-07T07:31:42.136Z,31.36
2018-05-07T07:34:12.949Z,30.37
2018-05-07T07:36:43.719Z,32.04
2018-05-07T07:39:14.495Z,30.10
2018-05-07T07:41:45.305Z,31.32
2018-05-07T07:44:16.120Z,30.96
2018-05-07T07:46:46.911Z,32.33
2018-05-07T07:49:17.695Z,32.05
2018-05-07T07:51:48.463Z,30.62
2018-05-07T07:54:19.253Z,30.27
2018-05-07T07:56:50.031Z,31.38
2018-05-07T07:59:20.838Z,31.06
2018-05-07T08:01:51.604Z,30.52
2018-05-07T08:04:22.400Z,31.95
2018-05-07T08:06:53.193Z,33.14
2018-05-07T08:09:23.989Z,32.58
2018-05-07T08:11:54.756Z,32.95
2018-05-07T08:14:25.585Z,31.21
2018-05-07T08:16:56.339Z,32.13
2018-05-07T08:19:27.141Z,33.63
2018-05-07T08:21:57.936Z,34.18
2018-05-07T08:24:28.718Z,33.28
2018-05-07T08:26:59.471Z,32.82
2018-05-07T08:29:30.303Z,32.44
2018-05-07T08:32:01.071Z,30.55
2018-05-07T08:34:31.860Z,31.07
2018-05-07T08:37:02.664Z,29.26
2018-05-07T08:39:33.453Z,29.42
2018-05-07T08:42:04.229Z,29.50
2018-05-07T08:44:35.036Z,28.98
2018-05-07T08:47:05.856Z,30.34
2018-05-07T08:49:36.659Z,28.16
2018-05-07T08:52:07.436Z,32.08
2018-05-07T08:54:38.217Z,33.26
2018-05-07T08:57:09.011Z,32.19
2018-05-07T08:59:39.815Z,33.42
2018-05-07T09:02:10.622Z,32.53
2018-05-07T09:04:41.388Z,32.67
2018-05-07T09:07:12.188Z,33.18
2018-05-07T09:09:42.962Z,33.99
2018-05-07T09:12:13.759Z,34.41
2018-05-07T09:14:44.540Z,36.12
2018-05-07T09:17:15.311Z,35.29
2018-05-07T09:19:46.103Z,33.64
2018-05-07T09:22:16.880Z,34.73
2018-05-07T09:24:47.763Z,34.17
2018-05-07T09:27:18.490Z,32.10
2018-05-07T09:29:49.263Z,30.66
2018-05-07T09:32:20.033Z,28.76
2018-05-07T09:34:50.832Z,28.68
2018-05-07T09:37:21.616Z,30.01
2018-05-07T09:39:52.416Z,30.15
2018-05-07T09:42:23.187Z,28.24
2018-05-07T09:44:53.997Z,27.00
2018-05-07T09:47:24.784Z,26.58
2018-05-07T09:49:55.588Z,29.17
2018-05-07T09:52:26.367Z,28.34
2018-05-07T09:54:57.184Z,28.96
2018-05-07T09:57:27.963Z,29.90
2018-05-07T09:59:58.777Z,31.98
2018-05-07T10:02:29.667Z,33.13
2018-05-07T10:05:00.507Z,31.69
2018-05-07T10:07:31.367Z,30.65
2018-05-07T10:10:02.232Z,29.27
2018-05-07T10:12:32.987Z,28.70
2018-05-07T10:15:03.796Z,28.52
2018-05-07T10:17:34.572Z,27.63
2018-05-07T10:20:12.473Z,28.22
2018-05-07T10:22:43.272Z,27.68
2018-05-07T10:25:14.070Z,28.85
2018-05-07T10:27:44.837Z,28.28
2018-05-07T10:30:15.631Z,28.67
2018-05-07T10:32:46.412Z,28.42
2018-05-07T10:35:17.292Z,27.76
2018-05-07T10:37:47.994Z,29.58
2018-05-07T10:40:18.857Z,30.62
2018-05-07T10:42:49.730Z,28.29
2018-05-07T10:45:20.491Z,28.62
2018-05-07T10:47:51.255Z,28.45
2018-05-07T10:50:22.103Z,28.16
2018-05-07T10:52:52.858Z,28.73
2018-05-07T10:55:23.661Z,29.33
2018-05-07T10:57:54.429Z,30.26
2018-05-07T11:00:25.220Z,28.77
2018-05-07T11:02:55.987Z,28.25
2018-05-07T11:05:26.851Z,27.22
2018-05-07T11:07:57.632Z,26.93
2018-05-07T11:10:28.448Z,26.51
2018-05-07T11:12:59.223Z,27.49
2018-05-07T11:15:30.026Z,27.21
2018-05-07T11:18:00.803Z,25.92
2018-05-07T11:20:31.593Z,25.00
2018-05-07T11:23:02.379Z,25.05
2018-05-07T11:25:33.167Z,25.30
2018-05-07T11:28:03.937Z,25.29
2018-05-07T11:30:34.704Z,24.99
2018-05-07T11:33:05.477Z,26.38
2018-05-07T11:35:36.292Z,25.46
2018-05-07T11:38:07.061Z,26.33
2018-05-07T11:40:37.851Z,26.54
2018-05-07T11:43:08.610Z,27.01
2018-05-07T11:45:39.400Z,24.81
2018-05-07T11:48:10.218Z,25.95
2018-05-07T11:50:41.014Z,23.56
2018-05-07T11:53:11.781Z,24.17
2018-05-07T11:55:42.563Z,23.58
2018-05-07T11:58:13.374Z,24.33
2018-05-07T12:00:44.171Z,23.47
2018-05-07T12:03:14.939Z,22.79
2018-05-07T12:05:45.747Z,23.36
2018-05-07T12:08:16.726Z,22.63
2018-05-07T12:10:47.527Z,21.41
2018-05-07T12:13:18.306Z,22.38
2018-05-07T12:15:49.402Z,21.03
2018-05-07T12:18:20.147Z,21.99
2018-05-07T12:20:50.943Z,23.20
2018-05-07T12:23:21.793Z,21.88
2018-05-07T12:25:52.502Z,22.19
2018-05-07T12:28:23.255Z,21.93
2018-05-07T12:30:54.027Z,20.40
2018-05-07T12:33:24.776Z,20.55
2018-05-07T12:35:55.548Z,20.13
2018-05-07T12:38:26.317Z,22.23
2018-05-07T12:40:57.113Z,22.84
2018-05-07T12:43:27.881Z,21.14
2018-05-07T12:45:58.662Z,20.15
2018-05-07T12:48:29.428Z,19.14
2018-05-07T12:51:00.203Z,20.15
2018-05-07T12:53:30.963Z,20.55
2018-05-07T12:56:02.250Z,21.52
2018-05-07T12:58:33.165Z,21.73
2018-05-07T13:01:03.940Z,21.29
2018-05-07T13:03:34.707Z,20.42
2018-05-07T13:06:05.524Z,19.06
2018-05-07T13:08:36.332Z,18.80
2018-05-07T13:11:07.119Z,18.54
2018-05-07T13:13:37.876Z,19.40
2018-05-07T13:16:08.647Z,19.92
2018-05-07T13:18:40.435Z,18.65
2018-05-07T13:21:11.960Z,19.07
2018-05-07T13:23:42.737Z,19.77
2018-05-07T13:26:13.531Z,20.43
2018-05-07T13:28:44.310Z,19.57
2018-05-07T13:31:16.727Z,19.45
2018-05-07T13:33:47.515Z,18.83
2018-05-07T13:36:18.311Z,18.59
2018-05-07T13:38:49.072Z,19.86
2018-05-07T13:41:19.849Z,20.66
2018-05-07T13:43:50.603Z,19.25
2018-05-07T13:46:21.377Z,20.23
2018-05-07T13:48:52.150Z,18.75
2018-05-07T13:51:22.934Z,19.25
2018-05-07T13:53:53.689Z,19.72
2018-05-07T13:56:24.520Z,19.05
2018-05-07T13:58:55.316Z,18.96
2018-05-07T14:01:26.120Z,17.75
2018-05-07T14:03:56.880Z,16.82
2018-05-07T14:06:27.666Z,18.14
2018-05-07T14:08:58.459Z,18.50
2018-05-07T14:11:29.276Z,16.79
2018-05-07T14:14:00.048Z,17.29
2018-05-07T14:16:30.831Z,17.96
2018-05-07T14:19:01.585Z,17.49
2018-05-07T14:21:32.375Z,16.79
2018-05-07T14:24:03.121Z,15.99
2018-05-07T14:26:33.914Z,16.43
2018-05-07T14:29:04.684Z,17.48
2018-05-07T14:31:35.507Z,17.40
2018-05-07T14:34:13.345Z,17.57
2018-05-07T14:36:44.125Z,17.97
2018-05-07T14:39:14.887Z,18.84
2018-05-07T14:41:45.672Z,18.62
2018-05-07T14:44:16.461Z,18.71
2018-05-07T14:46:47.264Z,20.15
2018-05-07T14:49:18.057Z,20.70
2018-05-07T14:51:48.844Z,19.73
2018-05-07T14:54:19.619Z,19.90
2018-05-07T14:56:50.405Z,19.67
2018-05-07T14:59:21.160Z,19.94
2018-05-07T15:01:52.684Z,21.01
2018-05-07T15:04:23.479Z,20.71
2018-05-07T15:06:54.292Z,20.87
2018-05-07T15:09:25.071Z,20.67
2018-05-07T15:11:55.981Z,20.06
2018-05-07T15:14:26.762Z,20.67
2018-05-07T15:16:57.551Z,21.44
2018-05-07T15:19:28.295Z,20.65
2018-05-07T15:21:59.074Z,20.73
2018-05-07T15:24:39.934Z,20.84
2018-05-07T15:27:10.742Z,20.70
2018-05-07T15:29:41.537Z,20.14
2018-05-07T15:32:12.333Z,20.08
2018-05-07T15:34:43.124Z,19.40
2018-05-07T15:37:13.937Z,20.10
2018-05-07T15:39:44.728Z,20.36
2018-05-07T15:42:15.535Z,19.03
2018-05-07T15:44:46.333Z,19.97
2018-05-07T15:47:17.135Z,20.67
2018-05-07T15:49:47.913Z,20.54
2018-05-07T15:52:18.711Z,19.42
2018-05-07T15:54:49.479Z,20.19
2018-05-07T15:57:20.305Z,19.86
2018-05-07T15:59:51.051Z,19.61
2018-05-07T16:02:22.821Z,20.52
2018-05-07T16:04:53.577Z,20.56
2018-05-07T16:07:25.148Z,21.05
2018-05-07T16:09:55.960Z,20.75
2018-05-07T16:12:26.729Z,19.98
2018-05-07T16:14:57.524Z,21.55
2018-05-07T16:17:28.344Z,22.07
2018-05-07T16:19:59.219Z,22.54
2018-05-07T16:22:29.891Z,23.31
2018-05-07T16:25:00.680Z,24.01
2018-05-07T16:27:31.510Z,24.03
2018-05-07T16:30:02.297Z,24.70
2018-05-07T16:32:33.158Z,24.96
2018-05-07T16:35:03.940Z,24.71
2018-05-07T16:37:34.763Z,25.26
2018-05-07T16:40:07.725Z,25.73
2018-05-07T16:42:38.627Z,25.49
2018-05-07T16:45:09.357Z,25.58
2018-05-07T16:47:40.156Z,25.95
2018-05-07T16:50:10.962Z,26.31
2018-05-07T16:52:41.785Z,26.79
2018-05-07T16:55:12.556Z,27.34
2018-05-07T16:57:43.352Z,27.77
2018-05-07T17:00:14.120Z,28.00
2018-05-07T17:02:44.887Z,28.33
2018-05-07T17:05:15.654Z,27.90
2018-05-07T17:07:46.456Z,28.29
2018-05-07T17:10:17.207Z,28.32
2018-05-07T17:12:48.008Z,28.70
2018-05-07T17:15:18.779Z,28.51
2018-05-07T17:17:49.594Z,28.10
2018-05-07T17:20:20.471Z,27.87
2018-05-07T17:22:51.272Z,28.05
2018-05-07T17:25:22.032Z,27.91
2018-05-07T17:27:58.819Z,27.76
2018-05-07T17:30:29.601Z,27.81
2018-05-07T17:33:00.413Z,27.84
2018-05-07T17:35:31.172Z,27.73
2018-05-07T17:38:01.961Z,27.75
2018-05-07T17:40:32.727Z,27.91
2018-05-07T17:43:03.585Z,28.87
2018-05-07T17:48:50.162Z,28.34
2018-05-07T17:51:20.934Z,28.29
2018-05-07T17:53:51.733Z,28.26
2018-05-07T17:56:22.488Z,28.67
2018-05-07T17:58:53.486Z,29.36
2018-05-07T18:01:24.257Z,28.96
2018-05-07T18:03:55.115Z,28.53
2018-05-07T18:06:26.037Z,29.07
2018-05-07T18:08:56.815Z,29.46
2018-05-07T18:11:27.601Z,29.32
2018-05-07T18:13:58.363Z,29.29
2018-05-07T18:16:29.120Z,29.47
2018-05-07T18:18:59.897Z,29.94
2018-05-07T18:21:30.665Z,30.08
2018-05-07T18:24:01.448Z,30.31
2018-05-07T18:26:32.250Z,30.80
2018-05-07T18:29:03.027Z,30.98
2018-05-07T18:31:33.785Z,31.48
2018-05-07T18:34:04.628Z,31.88
2018-05-07T18:36:35.415Z,32.40
2018-05-07T18:39:06.221Z,33.29
2018-05-07T18:41:37.004Z,33.53
2018-05-07T18:44:07.780Z,33.08
2018-05-07T18:46:38.587Z,33.31
2018-05-07T18:49:09.429Z,33.40
2018-05-07T18:51:40.210Z,33.62
2018-05-07T18:54:11.009Z,34.26
2018-05-07T18:56:41.827Z,34.11
2018-05-07T18:59:12.663Z,33.94
2018-05-07T19:01:43.439Z,33.96
2018-05-07T19:04:14.277Z,34.03
2018-05-07T19:06:45.072Z,33.95
2018-05-07T19:09:15.844Z,34.17
2018-05-07T19:11:46.616Z,34.05
2018-05-07T19:14:17.429Z,34.23
2018-05-07T19:16:48.232Z,34.45
2018-05-07T19:19:19.025Z,34.63
2018-05-07T19:21:49.903Z,34.48
2018-05-07T19:24:20.729Z,34.46
2018-05-07T19:26:51.571Z,34.48
2018-05-07T19:29:22.384Z,34.41
2018-05-07T19:31:53.154Z,34.63
2018-05-07T19:34:23.969Z,34.99
2018-05-07T19:36:54.799Z,34.77
2018-05-07T19:39:25.589Z,34.97
2018-05-07T19:41:56.348Z,35.10
2018-05-07T19:44:27.156Z,34.95
2018-05-07T19:46:57.939Z,35.15
2018-05-07T19:49:28.766Z,34.97
2018-05-07T19:51:59.520Z,35.25
2018-05-07T19:54:30.332Z,35.26
2018-05-07T19:57:01.110Z,35.33
2018-05-07T19:59:31.932Z,35.18
2018-05-07T20:02:02.725Z,35.39
2018-05-07T20:04:33.521Z,35.53
2018-05-07T20:07:04.290Z,35.73
2018-05-07T20:09:35.146Z,35.89
2018-05-07T20:12:05.952Z,35.92
2018-05-07T20:14:36.777Z,36.02
2018-05-07T20:17:07.643Z,35.99
2018-05-07T20:19:38.463Z,36.83
2018-05-07T20:22:09.821Z,36.48
2018-05-07T20:24:40.689Z,36.45
2018-05-07T20:27:11.508Z,36.53
2018-05-07T20:29:42.324Z,36.65
2018-05-07T20:32:13.124Z,36.49
2018-05-07T20:34:43.955Z,36.67
2018-05-07T20:37:14.754Z,36.59
2018-05-07T20:39:45.556Z,36.39
2018-05-07T20:42:16.324Z,36.79
2018-05-07T20:44:47.155Z,36.87
2018-05-07T20:47:17.961Z,37.39
2018-05-07T20:49:48.774Z,37.46
2018-05-07T20:52:19.556Z,37.33
2018-05-07T20:54:50.339Z,37.33
2018-05-07T20:57:21.118Z,37.45
2018-05-07T20:59:51.946Z,37.84
2018-05-07T21:02:22.705Z,37.94
2018-05-07T21:04:53.476Z,38.01
2018-05-07T21:07:31.121Z,38.30
2018-05-07T21:10:01.954Z,38.15
2018-05-07T21:12:32.734Z,38.51
2018-05-07T21:15:03.506Z,38.60
2018-05-07T21:17:34.313Z,38.81
2018-05-07T21:20:05.183Z,39.04
2018-05-07T21:22:35.995Z,39.38
2018-05-07T21:25:06.805Z,39.47
2018-05-07T21:27:37.623Z,39.70
2018-05-07T21:30:08.420Z,39.64
2018-05-07T21:32:39.212Z,39.90
2018-05-07T21:35:10.045Z,39.79
2018-05-07T21:37:40.860Z,39.96
2018-05-07T21:40:11.645Z,40.36
2018-05-07T21:42:42.453Z,40.53
2018-05-07T21:45:13.251Z,40.32
2018-05-07T21:47:44.028Z,40.07
2018-05-07T21:50:14.813Z,40.44
2018-05-07T21:52:45.591Z,40.89
2018-05-07T21:55:16.427Z,41.00
2018-05-07T21:57:47.193Z,41.23
2018-05-07T22:00:17.989Z,41.75
2018-05-07T22:02:48.771Z,42.44
2018-05-07T22:05:19.572Z,42.68
2018-05-07T22:07:50.411Z,43.85
2018-05-07T22:10:21.211Z,44.50
2018-05-07T22:12:52.137Z,44.77
2018-05-07T22:15:23.021Z,45.27
2018-05-07T22:17:53.812Z,45.82
2018-05-07T22:20:24.601Z,46.18
2018-05-07T22:22:55.405Z,46.63
2018-05-07T22:25:26.359Z,46.50
2018-05-07T22:27:57.138Z,47.13
2018-05-07T22:30:27.967Z,48.08
2018-05-07T22:32:58.763Z,49.29
2018-05-07T22:38:07.425Z,50.15
2018-05-07T22:40:38.250Z,50.39
2018-05-07T22:43:11.233Z,51.38
2018-05-07T22:45:42.233Z,51.53
2018-05-07T22:48:13.021Z,52.64
2018-05-07T22:50:43.870Z,52.49
2018-05-07T22:53:14.643Z,52.38
2018-05-07T22:55:45.444Z,52.67
2018-05-07T22:58:16.227Z,52.62
2018-05-07T23:00:47.118Z,52.02
2018-05-07T23:03:17.811Z,51.59
2018-05-07T23:05:48.723Z,51.74
2018-05-07T23:08:19.503Z,52.22
2018-05-07T23:10:50.363Z,52.28
2018-05-07T23:13:21.145Z,51.95
2018-05-07T23:15:51.918Z,51.78
2018-05-07T23:18:22.695Z,51.66
2018-05-07T23:20:53.524Z,53.21
2018-05-07T23:23:24.292Z,54.32
2018-05-07T23:25:55.123Z,56.13
2018-05-07T23:28:25.979Z,56.07
2018-05-07T23:30:56.831Z,56.59
2018-05-07T23:33:27.622Z,56.46
2018-05-07T23:35:58.432Z,56.36
2018-05-07T23:38:29.214Z,56.43
2018-05-07T23:41:00.012Z,56.87
2018-05-07T23:43:30.792Z,57.88
2018-05-07T23:46:01.611Z,57.94
2018-05-07T23:48:32.426Z,57.85
2018-05-07T23:51:03.228Z,58.85
2018-05-07T23:53:34.004Z,58.72
2018-05-07T23:56:04.823Z,59.71
2018-05-07T23:58:35.635Z,60.05
